createdAt,value
2019-02-05T00:00:35.530Z,8.17
2019-02-05T00:03:08.561Z,10.00
2019-02-05T00:05:37.469Z,8.93
2019-02-05T00:08:06.476Z,10.53
2019-02-05T00:10:35.730Z,10.03
2019-02-05T00:13:04.793Z,10.20
2019-02-05T00:15:34.436Z,10.83
2019-02-05T00:18:03.582Z,10.20
2019-02-05T00:20:32.831Z,10.30
2019-02-05T00:23:02.191Z,10.10
2019-02-05T00:25:31.193Z,10.70
2019-02-05T00:28:00.429Z,10.37
2019-02-05T00:30:29.842Z,11.13
2019-02-05T00:32:58.756Z,10.97
2019-02-05T00:35:28.001Z,10.43
2019-02-05T00:37:57.109Z,10.60
2019-02-05T00:40:26.014Z,11.07
2019-02-05T00:42:55.266Z,10.23
2019-02-05T00:45:24.669Z,10.83
2019-02-05T00:47:53.923Z,10.57
2019-02-05T00:50:22.932Z,11.00
2019-02-05T00:52:51.869Z,11.07
2019-02-05T00:55:20.778Z,11.23
2019-02-05T00:57:50.017Z,11.17
2019-02-05T01:00:30.847Z,10.23
2019-02-05T01:02:59.929Z,11.57
2019-02-05T01:05:28.835Z,11.47
2019-02-05T01:07:57.853Z,11.50
2019-02-05T01:10:27.586Z,11.80
2019-02-05T01:12:56.976Z,10.70
2019-02-05T01:15:26.458Z,11.37
2019-02-05T01:17:55.829Z,10.53
2019-02-05T01:20:25.212Z,11.57
2019-02-05T01:22:54.218Z,10.73
2019-02-05T01:25:23.140Z,12.83
2019-02-05T01:27:52.328Z,11.67
2019-02-05T01:30:22.818Z,11.63
2019-02-05T01:32:52.125Z,12.13
2019-02-05T01:35:21.694Z,12.47
2019-02-05T01:37:50.991Z,13.13
2019-02-05T01:40:21.449Z,13.47
2019-02-05T01:42:50.362Z,14.93
2019-02-05T01:45:20.868Z,14.77
2019-02-05T01:47:50.194Z,13.70
2019-02-05T01:50:20.365Z,14.23
2019-02-05T01:52:49.634Z,13.60
2019-02-05T01:55:18.981Z,14.23
2019-02-05T01:57:48.291Z,13.50
2019-02-05T02:00:32.133Z,15.37
2019-02-05T02:03:01.461Z,14.53
2019-02-05T02:05:30.466Z,14.23
2019-02-05T02:07:59.763Z,15.37
2019-02-05T02:10:30.038Z,14.93
2019-02-05T02:12:59.416Z,15.30
2019-02-05T02:15:28.703Z,14.23
2019-02-05T02:17:57.933Z,15.23
2019-02-05T02:20:27.342Z,14.10
2019-02-05T02:22:57.111Z,14.27
2019-02-05T02:25:26.155Z,14.83
2019-02-05T02:27:55.479Z,14.77
2019-02-05T02:30:30.848Z,15.93
2019-02-05T02:32:59.854Z,15.63
2019-02-05T02:35:29.085Z,15.73
2019-02-05T02:37:58.117Z,15.90
2019-02-05T02:40:27.034Z,15.37
2019-02-05T02:42:56.279Z,16.27
2019-02-05T02:45:25.354Z,16.53
2019-02-05T02:47:54.620Z,16.57
2019-02-05T02:50:23.621Z,17.23
2019-02-05T02:52:52.628Z,17.03
2019-02-05T02:55:21.870Z,17.40
2019-02-05T02:57:50.869Z,16.73
2019-02-05T03:00:20.775Z,17.30
2019-02-05T03:02:51.524Z,18.00
2019-02-05T03:05:21.575Z,18.17
2019-02-05T03:07:50.977Z,17.50
2019-02-05T03:10:20.965Z,18.63
2019-02-05T03:12:50.269Z,19.13
2019-02-05T03:15:19.300Z,20.57
2019-02-05T03:17:48.610Z,21.47
2019-02-05T03:20:18.789Z,21.00
2019-02-05T03:22:47.809Z,21.03
2019-02-05T03:25:22.123Z,22.20
2019-02-05T03:27:53.695Z,22.57
2019-02-05T03:30:25.663Z,21.00
2019-02-05T03:32:56.500Z,22.23
2019-02-05T03:35:25.928Z,22.33
2019-02-05T03:37:55.350Z,22.13
2019-02-05T03:40:30.672Z,21.00
2019-02-05T03:43:00.087Z,22.60
2019-02-05T03:45:31.555Z,22.43
2019-02-05T03:48:05.390Z,21.70
2019-02-05T03:50:35.931Z,22.23
2019-02-05T03:53:11.546Z,22.13
2019-02-05T03:55:52.576Z,24.17
2019-02-05T03:58:56.271Z,23.30
2019-02-05T04:01:28.672Z,21.67
2019-02-05T04:04:01.885Z,24.03
2019-02-05T04:06:32.337Z,23.83
2019-02-05T04:09:04.362Z,24.43
2019-02-05T04:11:34.845Z,23.60
2019-02-05T04:14:07.986Z,22.83
2019-02-05T04:16:59.631Z,24.33
2019-02-05T04:20:00.618Z,23.97
2019-02-05T04:22:53.193Z,24.80
2019-02-05T04:25:37.050Z,25.10
2019-02-05T04:28:34.888Z,24.10
2019-02-05T04:31:31.313Z,25.10
2019-02-05T04:34:21.650Z,23.93
2019-02-05T04:37:08.714Z,25.10
2019-02-05T04:39:41.966Z,25.47
2019-02-05T04:42:18.101Z,23.57
2019-02-05T04:45:08.442Z,23.73
2019-02-05T04:48:09.093Z,24.13
2019-02-05T04:50:39.765Z,22.77
2019-02-05T04:53:12.073Z,23.77
2019-02-05T04:55:46.958Z,24.00
2019-02-05T04:58:44.921Z,21.93
2019-02-05T05:01:41.146Z,20.47
2019-02-05T05:04:19.022Z,21.63
2019-02-05T05:07:09.305Z,21.13
2019-02-05T05:09:41.714Z,21.70
2019-02-05T05:12:10.720Z,21.33
2019-02-05T05:14:40.373Z,21.63
2019-02-05T05:17:09.708Z,21.57
2019-02-05T05:19:39.105Z,21.27
2019-02-05T05:22:08.214Z,19.73
2019-02-05T05:24:37.630Z,20.17
2019-02-05T05:27:07.127Z,21.80
2019-02-05T05:29:36.494Z,20.53
2019-02-05T05:32:06.070Z,20.13
2019-02-05T05:34:35.397Z,20.33
2019-02-05T05:37:03.683Z,20.00
2019-02-05T05:39:33.090Z,19.60
2019-02-05T05:42:02.421Z,19.27
2019-02-05T05:44:31.450Z,19.47
2019-02-05T05:47:00.775Z,20.13
2019-02-05T05:49:30.098Z,21.67
2019-02-05T05:51:59.464Z,18.83
2019-02-05T05:54:28.802Z,19.60
2019-02-05T05:56:58.139Z,18.60
2019-02-05T05:59:27.157Z,18.10
2019-02-05T06:01:56.079Z,18.17
2019-02-05T06:04:25.291Z,18.93
2019-02-05T06:06:54.624Z,20.33
2019-02-05T06:09:23.944Z,18.83
2019-02-05T06:11:53.266Z,19.57
2019-02-05T06:14:22.630Z,18.27
2019-02-05T06:16:51.960Z,19.07
2019-02-05T06:19:21.290Z,19.20
2019-02-05T06:21:50.656Z,19.30
2019-02-05T06:24:19.986Z,18.43
2019-02-05T06:26:48.981Z,16.97
2019-02-05T06:29:18.321Z,18.60
2019-02-05T06:31:47.654Z,18.43
2019-02-05T06:34:16.989Z,18.93
2019-02-05T06:36:46.651Z,22.93
2019-02-05T06:39:15.983Z,19.40
2019-02-05T06:41:45.343Z,17.93
2019-02-05T06:44:14.753Z,18.57
2019-02-05T06:46:44.081Z,23.50
2019-02-05T06:49:13.414Z,20.27
2019-02-05T06:51:43.113Z,19.07
2019-02-05T06:54:12.448Z,20.30
2019-02-05T06:56:42.421Z,18.33
2019-02-05T06:59:11.923Z,18.93
2019-02-05T07:01:41.325Z,17.47
2019-02-05T07:04:10.649Z,19.27
2019-02-05T07:06:40.024Z,18.57
2019-02-05T07:09:09.863Z,20.83
2019-02-05T07:11:38.983Z,20.43
2019-02-05T07:14:08.340Z,21.00
2019-02-05T07:16:37.688Z,21.00
2019-02-05T07:19:07.097Z,20.33
2019-02-05T07:21:36.467Z,18.83
2019-02-05T07:24:11.044Z,27.22
2019-02-05T07:26:40.384Z,21.27
2019-02-05T07:29:09.756Z,19.90
2019-02-05T07:31:39.103Z,20.13
2019-02-05T07:34:08.514Z,19.47
2019-02-05T07:36:38.052Z,17.53
2019-02-05T07:39:08.615Z,18.37
2019-02-05T07:41:38.104Z,18.77
2019-02-05T07:44:07.557Z,18.77
2019-02-05T07:46:37.036Z,18.00
2019-02-05T07:49:06.379Z,19.67
2019-02-05T07:51:35.428Z,19.50
2019-02-05T07:54:05.115Z,18.60
2019-02-05T07:56:34.838Z,19.27
2019-02-05T07:59:10.180Z,18.27
2019-02-05T08:01:35.696Z,15.80
2019-02-05T08:04:05.355Z,19.90
2019-02-05T08:06:35.022Z,20.00
2019-02-05T08:09:07.836Z,17.37
2019-02-05T08:11:37.319Z,19.80
2019-02-05T08:14:07.000Z,18.47
2019-02-05T08:16:36.449Z,19.13
2019-02-05T08:19:05.924Z,17.97
2019-02-05T08:21:35.447Z,18.23
2019-02-05T08:24:05.505Z,18.20
2019-02-05T08:26:34.848Z,18.93
2019-02-05T08:29:04.766Z,17.67
2019-02-05T08:31:34.192Z,18.03
2019-02-05T08:34:03.652Z,18.67
2019-02-05T08:36:33.104Z,18.50
2019-02-05T08:39:02.440Z,20.07
2019-02-05T08:41:31.787Z,18.70
2019-02-05T08:44:01.162Z,18.83
2019-02-05T08:46:30.782Z,19.10
2019-02-05T08:49:00.132Z,17.83
2019-02-05T08:51:29.506Z,16.83
2019-02-05T08:53:58.858Z,16.80
2019-02-05T08:56:28.205Z,18.90
2019-02-05T08:58:57.582Z,17.67
2019-02-05T09:01:27.070Z,15.57
2019-02-05T09:03:56.798Z,18.53
2019-02-05T09:06:26.173Z,16.57
2019-02-05T09:08:55.517Z,16.90
2019-02-05T09:11:24.860Z,15.27
2019-02-05T09:13:54.237Z,17.73
2019-02-05T09:16:23.587Z,16.43
2019-02-05T09:18:53.013Z,17.50
2019-02-05T09:21:22.380Z,17.40
2019-02-05T09:23:51.881Z,16.67
2019-02-05T09:26:21.299Z,16.97
2019-02-05T09:28:52.531Z,17.50
2019-02-05T09:31:21.717Z,18.67
2019-02-05T09:33:51.061Z,16.60
2019-02-05T09:36:20.703Z,16.03
2019-02-05T09:38:50.056Z,17.07
2019-02-05T09:41:19.624Z,16.60
2019-02-05T09:43:49.009Z,16.87
2019-02-05T09:46:18.421Z,16.47
2019-02-05T09:48:47.770Z,17.57
2019-02-05T09:51:17.516Z,18.33
2019-02-05T09:53:46.865Z,17.57
2019-02-05T09:56:16.204Z,16.90
2019-02-05T09:58:45.651Z,17.37
2019-02-05T10:01:15.073Z,18.13
2019-02-05T10:03:44.408Z,17.03
2019-02-05T10:06:13.792Z,17.67
2019-02-05T10:08:43.471Z,18.83
2019-02-05T10:11:12.820Z,18.20
2019-02-05T10:13:42.267Z,17.53
2019-02-05T10:16:11.824Z,16.80
2019-02-05T10:18:41.173Z,18.93
2019-02-05T10:21:10.761Z,17.77
2019-02-05T10:23:40.184Z,18.93
2019-02-05T10:26:09.873Z,18.20
2019-02-05T10:28:39.328Z,19.13
2019-02-05T10:31:08.673Z,17.83
2019-02-05T10:33:38.017Z,17.60
2019-02-05T10:36:07.533Z,17.93
2019-02-05T10:38:36.980Z,17.93
2019-02-05T10:41:06.568Z,17.10
2019-02-05T10:43:36.081Z,17.63
2019-02-05T10:46:06.131Z,17.63
2019-02-05T10:48:35.622Z,17.53
2019-02-05T10:51:05.233Z,16.17
2019-02-05T10:53:47.559Z,16.00
2019-02-05T10:56:17.009Z,15.67
2019-02-05T10:58:46.425Z,16.00
2019-02-05T11:01:15.772Z,16.83
2019-02-05T11:03:50.096Z,15.20
2019-02-05T11:06:20.192Z,17.90
2019-02-05T11:08:49.804Z,16.90
2019-02-05T11:11:19.194Z,16.10
2019-02-05T11:13:48.607Z,17.17
2019-02-05T11:16:18.022Z,16.10
2019-02-05T11:18:47.392Z,15.40
2019-02-05T11:21:16.740Z,16.27
2019-02-05T11:23:46.160Z,17.00
2019-02-05T11:26:15.918Z,16.40
2019-02-05T11:28:45.266Z,15.60
2019-02-05T11:31:14.608Z,15.53
2019-02-05T11:33:44.065Z,15.97
2019-02-05T11:36:13.476Z,14.07
2019-02-05T11:38:42.821Z,15.03
2019-02-05T11:41:13.735Z,15.47
2019-02-05T11:43:43.246Z,14.17
2019-02-05T11:46:12.733Z,15.93
2019-02-05T11:48:42.243Z,14.03
2019-02-05T11:51:11.654Z,13.07
2019-02-05T11:53:40.990Z,13.37
2019-02-05T11:56:10.402Z,13.80
2019-02-05T11:58:40.112Z,13.00
2019-02-05T12:01:10.829Z,11.80
2019-02-05T12:03:40.347Z,15.70
2019-02-05T12:06:09.747Z,12.03
2019-02-05T12:08:39.105Z,12.33
2019-02-05T12:11:08.565Z,13.07
2019-02-05T12:13:37.899Z,12.03
2019-02-05T12:16:07.488Z,11.27
2019-02-05T12:18:36.954Z,11.70
2019-02-05T12:21:06.441Z,12.30
2019-02-05T12:23:35.896Z,11.70
2019-02-05T12:26:05.403Z,11.67
2019-02-05T12:28:34.744Z,11.03
2019-02-05T12:31:04.224Z,11.57
2019-02-05T12:33:33.602Z,11.70
2019-02-05T12:36:03.013Z,10.43
2019-02-05T12:38:32.420Z,11.77
2019-02-05T12:41:01.785Z,11.60
2019-02-05T12:43:31.137Z,10.87
2019-02-05T12:46:00.549Z,11.23
2019-02-05T12:48:29.999Z,10.87
2019-02-05T12:50:59.353Z,11.47
2019-02-05T12:53:28.832Z,10.80
2019-02-05T12:55:58.277Z,10.63
2019-02-05T12:58:27.624Z,10.70
2019-02-05T13:01:00.183Z,9.67
2019-02-05T13:03:28.270Z,11.00
2019-02-05T13:05:57.688Z,11.17
2019-02-05T13:08:27.168Z,10.50
2019-02-05T13:10:56.536Z,12.20
2019-02-05T13:13:26.128Z,10.80
2019-02-05T13:15:55.492Z,11.67
2019-02-05T13:18:25.032Z,10.70
2019-02-05T13:20:54.400Z,11.77
2019-02-05T13:23:23.752Z,11.20
2019-02-05T13:25:53.190Z,11.20
2019-02-05T13:28:22.605Z,11.20
2019-02-05T13:30:52.016Z,10.93
2019-02-05T13:33:21.453Z,11.97
2019-02-05T13:35:50.868Z,11.40
2019-02-05T13:38:20.290Z,12.27
2019-02-05T13:40:49.720Z,11.57
2019-02-05T13:43:19.065Z,11.63
2019-02-05T13:45:48.544Z,11.50
2019-02-05T13:48:17.987Z,11.23
2019-02-05T13:50:47.476Z,11.87
2019-02-05T13:53:16.813Z,11.00
2019-02-05T13:55:47.019Z,10.63
2019-02-05T13:58:16.501Z,8.93
2019-02-05T14:00:50.697Z,9.80
2019-02-05T14:03:20.159Z,10.80
2019-02-05T14:05:49.625Z,10.87
2019-02-05T14:08:19.044Z,10.70
2019-02-05T14:10:48.876Z,10.93
2019-02-05T14:13:18.349Z,11.13
2019-02-05T14:15:49.904Z,10.60
2019-02-05T14:18:22.619Z,10.90
2019-02-05T14:20:50.588Z,10.27
2019-02-05T14:23:20.008Z,10.10
2019-02-05T14:25:49.530Z,10.83
2019-02-05T14:28:18.940Z,9.90
2019-02-05T14:30:50.997Z,10.27
2019-02-05T14:33:21.426Z,9.87
2019-02-05T14:35:50.816Z,11.17
2019-02-05T14:38:20.335Z,10.40
2019-02-05T14:40:49.777Z,10.00
2019-02-05T14:43:19.188Z,10.80
2019-02-05T14:45:48.685Z,10.17
2019-02-05T14:48:18.051Z,11.17
2019-02-05T14:50:48.081Z,10.87
2019-02-05T14:53:17.452Z,12.07
2019-02-05T14:55:46.828Z,10.37
2019-02-05T14:58:16.303Z,9.90
2019-02-05T15:00:45.736Z,10.73
2019-02-05T15:03:15.355Z,10.87
2019-02-05T15:05:44.837Z,10.23
2019-02-05T15:08:14.240Z,10.27
2019-02-05T15:10:43.686Z,10.40
2019-02-05T15:13:15.918Z,10.27
2019-02-05T15:15:44.820Z,10.03
2019-02-05T15:18:14.429Z,9.10
2019-02-05T15:20:45.813Z,9.60
2019-02-05T15:23:15.148Z,11.37
2019-02-05T15:25:44.657Z,8.73
2019-02-05T15:28:14.062Z,9.53
2019-02-05T15:30:44.453Z,10.00
2019-02-05T15:33:18.949Z,9.67
2019-02-05T15:35:50.069Z,9.37
2019-02-05T15:38:19.409Z,9.93
2019-02-05T15:40:49.322Z,9.53
2019-02-05T15:43:18.719Z,8.90
2019-02-05T15:45:48.144Z,9.27
2019-02-05T15:48:17.636Z,8.60
2019-02-05T15:50:47.102Z,9.27
2019-02-05T15:53:16.593Z,9.03
2019-02-05T15:55:46.421Z,8.63
2019-02-05T15:58:15.900Z,8.40
2019-02-05T16:00:45.238Z,9.53
2019-02-05T16:03:14.676Z,8.23
2019-02-05T16:05:44.172Z,9.03
2019-02-05T16:08:13.522Z,9.17
2019-02-05T16:10:43.169Z,8.17
2019-02-05T16:13:12.517Z,9.17
2019-02-05T16:15:41.932Z,9.30
2019-02-05T16:18:11.293Z,9.57
2019-02-05T16:20:40.639Z,9.17
2019-02-05T16:23:10.129Z,10.23
2019-02-05T16:25:39.751Z,10.37
2019-02-05T16:28:09.278Z,10.27
2019-02-05T16:30:38.785Z,10.60
2019-02-05T16:33:08.238Z,10.07
2019-02-05T16:35:37.833Z,10.33
2019-02-05T16:38:07.297Z,10.53
2019-02-05T16:40:38.985Z,10.47
2019-02-05T16:43:08.409Z,12.17
2019-02-05T16:45:37.942Z,11.07
2019-02-05T16:48:07.493Z,11.50
2019-02-05T16:50:45.204Z,11.60
2019-02-05T16:53:14.961Z,11.63
2019-02-05T16:55:44.404Z,11.37
2019-02-05T16:58:13.797Z,12.20
2019-02-05T17:00:43.400Z,11.93
2019-02-05T17:03:12.959Z,12.97
2019-02-05T17:05:43.251Z,11.70
2019-02-05T17:08:13.193Z,11.70
2019-02-05T17:10:42.707Z,12.13
2019-02-05T17:13:12.289Z,11.93
2019-02-05T17:15:41.939Z,11.70
2019-02-05T17:18:22.884Z,11.93
2019-02-05T17:20:42.629Z,11.67
2019-02-05T17:23:12.243Z,12.20
2019-02-05T17:25:41.803Z,12.20
2019-02-05T17:28:11.294Z,11.40
2019-02-05T17:30:41.369Z,11.47
2019-02-05T17:33:10.890Z,11.73
2019-02-05T17:35:40.364Z,13.57
2019-02-05T17:38:10.964Z,12.73
2019-02-05T17:40:40.467Z,12.63
2019-02-05T17:43:09.917Z,13.50
2019-02-05T17:45:43.370Z,12.50
2019-02-05T17:48:14.928Z,12.07
2019-02-05T17:50:44.717Z,12.80
2019-02-05T17:53:14.284Z,13.43
2019-02-05T17:55:43.784Z,13.03
2019-02-05T17:58:13.479Z,13.53
2019-02-05T18:00:44.742Z,12.93
2019-02-05T18:03:14.192Z,13.13
2019-02-05T18:05:43.763Z,13.83
2019-02-05T18:08:13.386Z,12.73
2019-02-05T18:10:42.946Z,13.10
2019-02-05T18:13:12.566Z,12.40
2019-02-05T18:15:43.841Z,12.53
2019-02-05T18:18:13.746Z,13.90
2019-02-05T18:20:44.025Z,13.67
2019-02-05T18:23:13.805Z,13.33
2019-02-05T18:25:43.607Z,14.60
2019-02-05T18:28:13.295Z,12.43
2019-02-05T18:30:43.097Z,13.77
2019-02-05T18:33:13.199Z,13.20
2019-02-05T18:35:43.128Z,13.23
2019-02-05T18:38:15.619Z,15.13
2019-02-05T18:40:45.563Z,14.13
2019-02-05T18:43:15.609Z,15.57
2019-02-05T18:45:45.506Z,14.97
2019-02-05T18:48:15.238Z,15.93
2019-02-05T18:50:44.874Z,13.90
2019-02-05T18:53:23.966Z,14.90
2019-02-05T18:55:53.747Z,14.93
2019-02-05T18:58:26.515Z,16.03
2019-02-05T19:00:54.907Z,14.77
2019-02-05T19:03:24.571Z,16.23
2019-02-05T19:05:54.170Z,16.37
2019-02-05T19:08:23.678Z,17.97
2019-02-05T19:10:53.350Z,18.33
2019-02-05T19:13:22.856Z,18.77
2019-02-05T19:15:52.323Z,18.23
2019-02-05T19:18:21.907Z,20.17
2019-02-05T19:20:51.992Z,19.23
2019-02-05T19:23:21.730Z,21.53
2019-02-05T19:26:01.621Z,20.83
2019-02-05T19:28:32.675Z,21.73
2019-02-05T19:31:04.027Z,20.03
2019-02-05T19:33:33.520Z,22.23
2019-02-05T19:36:03.449Z,23.83
2019-02-05T19:38:33.517Z,22.53
2019-02-05T19:41:03.629Z,23.97
2019-02-05T19:43:32.982Z,22.03
2019-02-05T19:46:20.455Z,23.53
2019-02-05T19:48:54.653Z,24.80
2019-02-05T19:51:24.085Z,24.10
2019-02-05T19:53:54.065Z,25.03
2019-02-05T19:56:23.539Z,24.27
2019-02-05T19:58:53.011Z,24.40
2019-02-05T20:01:22.397Z,24.03
2019-02-05T20:03:51.751Z,26.07
2019-02-05T20:06:21.153Z,24.57
2019-02-05T20:08:50.560Z,25.57
2019-02-05T20:11:20.159Z,26.07
2019-02-05T20:13:49.696Z,24.33
2019-02-05T20:16:19.197Z,26.67
2019-02-05T20:18:48.664Z,25.30
2019-02-05T20:21:18.364Z,24.63
2019-02-05T20:23:48.065Z,25.50
2019-02-05T20:26:18.027Z,26.33
2019-02-05T20:28:47.611Z,25.73
2019-02-05T20:31:17.336Z,25.67
2019-02-05T20:33:50.046Z,25.03
2019-02-05T20:36:18.356Z,25.60
2019-02-05T20:38:47.887Z,24.43
2019-02-05T20:41:17.597Z,25.07
2019-02-05T20:43:46.953Z,26.50
2019-02-05T20:46:16.324Z,26.80
2019-02-05T20:48:45.656Z,26.80
2019-02-05T20:51:15.078Z,26.43
2019-02-05T20:53:44.447Z,25.60
2019-02-05T20:56:13.873Z,27.90
2019-02-05T20:58:43.464Z,26.97
2019-02-05T21:01:12.826Z,28.30
2019-02-05T21:03:42.163Z,28.73
2019-02-05T21:06:11.494Z,28.43
2019-02-05T21:08:40.862Z,28.40
2019-02-05T21:11:10.329Z,27.13
2019-02-05T21:13:39.658Z,26.17
2019-02-05T21:16:09.033Z,26.63
2019-02-05T21:18:38.379Z,27.23
2019-02-05T21:21:07.718Z,28.73
2019-02-05T21:23:38.139Z,28.07
2019-02-05T21:26:07.720Z,25.87
2019-02-05T21:28:37.052Z,27.93
2019-02-05T21:31:06.790Z,26.53
2019-02-05T21:33:36.126Z,27.57
2019-02-05T21:36:05.521Z,25.57
2019-02-05T21:38:34.877Z,27.40
2019-02-05T21:41:04.284Z,27.57
2019-02-05T21:43:33.609Z,26.13
2019-02-05T21:46:03.309Z,26.67
2019-02-05T21:48:32.649Z,27.43
2019-02-05T21:51:01.985Z,29.37
2019-02-05T21:53:31.331Z,29.53
2019-02-05T21:56:00.668Z,29.80
2019-02-05T21:58:30.001Z,28.10
2019-02-05T22:00:59.385Z,26.23
2019-02-05T22:03:28.891Z,27.07
2019-02-05T22:05:58.255Z,27.57
2019-02-05T22:08:27.645Z,27.50
2019-02-05T22:10:57.016Z,27.73
2019-02-05T22:13:26.382Z,27.50
2019-02-05T22:15:55.750Z,30.20
2019-02-05T22:18:25.091Z,27.53
2019-02-05T22:20:54.416Z,27.67
2019-02-05T22:23:24.055Z,25.63
2019-02-05T22:25:53.382Z,26.10
2019-02-05T22:28:22.712Z,26.30
2019-02-05T22:30:52.445Z,26.97
2019-02-05T22:33:21.786Z,27.37
2019-02-05T22:35:51.114Z,25.50
2019-02-05T22:38:20.474Z,27.33
2019-02-05T22:40:49.810Z,27.43
2019-02-05T22:43:19.418Z,27.47
2019-02-05T22:45:48.792Z,26.23
2019-02-05T22:48:18.647Z,24.93
2019-02-05T22:50:47.557Z,26.23
2019-02-05T22:53:16.855Z,26.77
2019-02-05T22:55:46.254Z,24.73
2019-02-05T22:58:15.647Z,25.67
2019-02-05T23:00:57.680Z,25.80
2019-02-05T23:03:36.034Z,24.47
2019-02-05T23:06:18.984Z,27.50
2019-02-05T23:08:48.461Z,28.23
2019-02-05T23:11:38.855Z,28.93
2019-02-05T23:14:08.471Z,27.00
2019-02-05T23:16:37.469Z,28.07
2019-02-05T23:19:07.011Z,27.20
2019-02-05T23:21:36.412Z,28.73
2019-02-05T23:24:05.818Z,29.07
2019-02-05T23:26:35.182Z,29.20
2019-02-05T23:29:04.595Z,28.33
2019-02-05T23:31:33.921Z,26.93
2019-02-05T23:34:03.277Z,27.10
2019-02-05T23:36:32.617Z,28.13
2019-02-05T23:39:01.951Z,29.10
2019-02-05T23:41:31.310Z,29.10
2019-02-05T23:44:00.644Z,29.37
2019-02-05T23:46:29.969Z,29.30
2019-02-05T23:48:59.344Z,28.53
2019-02-05T23:51:28.669Z,26.53
2019-02-05T23:53:58.007Z,28.60
2019-02-05T23:56:27.370Z,27.50
2019-02-05T23:58:56.704Z,27.67
